Time;durP1;ratioP1;P1;durP2;ratioP2;P2;SDS_P1;SDS_P2;PMS_P1;PMS_P2;Temp;Humidity;BMP_temperature;BMP_pressure;BME280_temperature;BME280_humidity;BME280_pressure;Samples;Min_cycle;Max_cycle;Signal;HPM_P1;HPM_P2
2023/07/02 00:00:07;;;;;;;2.70;2.30;;;;;;;15.91;100.00;95319.38;1047911;28;20028;-76
2023/07/02 00:00:38;;;;;;;4.53;2.45;;;;;;;15.82;100.00;95305.31;1035446;28;20713;-77
2023/07/02 00:01:09;;;;;;;2.72;2.30;;;;;;;15.96;100.00;95327.16;1036117;28;20018;-76
2023/07/02 00:01:39;;;;;;;4.70;2.88;;;;;;;15.91;100.00;95320.13;1031488;28;20448;-76
2023/07/02 00:02:09;;;;;;;3.60;2.60;;;;;;;15.89;100.00;95317.00;1039239;28;20029;-76
2023/07/02 00:02:40;;;;;;;4.40;2.50;;;;;;;15.88;100.00;95320.75;1040790;28;20028;-76
2023/07/02 00:03:10;;;;;;;3.10;2.55;;;;;;;15.92;100.00;95321.69;1043227;28;20017;-76
2023/07/02 00:03:41;;;;;;;6.10;2.45;;;;;;;15.92;100.00;95323.56;1043405;28;20180;-76
2023/07/02 00:04:15;;;;;;;6.18;2.35;;;;;;;15.85;100.00;95316.06;1043368;28;20561;-75
2023/07/02 00:04:46;;;;;;;3.58;2.10;;;;;;;15.89;100.00;95316.22;1044082;28;20033;-77
2023/07/02 00:05:17;;;;;;;3.28;2.67;;;;;;;15.88;100.00;95314.69;1039627;28;20014;-77
2023/07/02 00:05:50;;;;;;;5.75;2.80;;;;;;;15.88;100.00;95312.03;1035502;28;20045;-77
2023/07/02 00:06:21;;;;;;;3.72;2.30;;;;;;;15.92;100.00;95320.91;1032791;28;20436;-77
2023/07/02 00:06:51;;;;;;;4.93;2.47;;;;;;;15.89;100.00;95314.34;1032862;28;20791;-77
2023/07/02 00:07:22;;;;;;;3.67;2.60;;;;;;;15.79;100.00;95299.56;1044123;28;20035;-76
2023/07/02 00:07:52;;;;;;;3.30;2.30;;;;;;;15.92;100.00;95318.28;1043614;28;20427;-77
2023/07/02 00:08:23;;;;;;;3.28;2.10;;;;;;;15.93;100.00;95317.19;1039433;28;20029;-77
2023/07/02 00:08:53;;;;;;;3.15;2.50;;;;;;;15.86;100.00;95311.56;1043717;28;20029;-76
2023/07/02 00:09:24;;;;;;;9.55;2.90;;;;;;;15.89;100.00;95316.22;1043789;28;20017;-76
2023/07/02 00:09:54;;;;;;;6.78;2.90;;;;;;;15.90;100.00;95317.81;1043642;28;20039;-77
2023/07/02 00:10:25;;;;;;;4.28;2.35;;;;;;;15.88;100.00;95320.75;1035681;28;20045;-77
2023/07/02 00:10:55;;;;;;;6.10;2.33;;;;;;;15.90;100.00;95308.00;1035194;28;20030;-77
2023/07/02 00:11:26;;;;;;;3.10;2.45;;;;;;;15.94;100.00;95322.19;1042180;28;20538;-76
2023/07/02 00:11:56;;;;;;;5.97;2.50;;;;;;;15.89;100.00;95309.06;1043828;28;20029;-77
2023/07/02 00:12:26;;;;;;;2.85;2.55;;;;;;;15.91;100.00;95325.44;1043366;28;20569;-76
2023/07/02 00:12:57;;;;;;;3.35;2.33;;;;;;;15.85;100.00;95310.78;1043667;28;20162;-77
2023/07/02 00:13:27;;;;;;;2.97;2.45;;;;;;;15.92;100.00;95315.63;1044139;28;20040;-77
2023/07/02 00:13:58;;;;;;;3.67;2.70;;;;;;;15.95;100.00;95322.94;1043708;28;20036;-76
2023/07/02 00:14:28;;;;;;;6.05;2.55;;;;;;;15.90;100.00;95307.22;1047255;28;20040;-77
2023/07/02 00:14:59;;;;;;;5.72;2.70;;;;;;;15.96;100.00;95321.84;1035658;28;20034;-78
2023/07/02 00:15:30;;;;;;;4.30;2.20;;;;;;;15.88;100.00;95306.75;1035076;28;20076;-77
2023/07/02 00:16:00;;;;;;;5.70;2.55;;;;;;;15.96;100.00;95324.50;1027128;28;20089;-76
2023/07/02 00:16:31;;;;;;;4.13;2.20;;;;;;;15.88;100.00;95307.53;1038340;28;20033;-77
2023/07/02 00:17:01;;;;;;;5.78;2.60;;;;;;;15.92;100.00;95316.41;1039466;28;20026;-76
2023/07/02 00:17:32;;;;;;;4.22;2.63;;;;;;;16.00;100.00;95322.81;1043557;28;20025;-77
2023/07/02 00:18:02;;;;;;;2.88;2.53;;;;;;;15.94;100.00;95324.81;1047107;28;20044;-76
2023/07/02 00:18:35;;;;;;;2.80;2.40;;;;;;;15.92;100.00;95315.63;1039084;28;20056;-76
2023/07/02 00:19:06;;;;;;;6.05;3.00;;;;;;;15.94;100.00;95324.03;1031294;28;20069;-76
2023/07/02 00:19:39;;;;;;;3.83;2.53;;;;;;;15.78;100.00;95300.63;1036355;28;20379;-77
2023/07/02 00:20:14;;;;;;;2.72;2.20;;;;;;;15.90;100.00;95328.41;1047474;28;20547;-76
2023/07/02 00:20:45;;;;;;;3.80;2.65;;;;;;;15.76;100.00;95300.19;1048553;28;20536;-77
2023/07/02 00:21:16;;;;;;;5.13;2.38;;;;;;;15.89;100.00;95313.59;1046926;28;20066;-76
2023/07/02 00:21:47;;;;;;;5.75;2.80;;;;;;;15.89;100.00;95321.53;1047868;28;20031;-77
2023/07/02 00:22:18;;;;;;;2.63;2.20;;;;;;;15.95;100.00;95325.59;1046661;28;20035;-77
2023/07/02 00:22:49;;;;;;;5.80;2.80;;;;;;;15.89;100.00;95317.00;1042886;28;20465;-77
2023/07/02 00:23:20;;;;;;;3.63;2.70;;;;;;;15.94;100.00;95331.97;1039821;28;20026;-77
2023/07/02 00:23:50;;;;;;;4.78;2.28;;;;;;;15.92;100.00;95324.34;1042874;28;20024;-77
2023/07/02 00:24:20;;;;;;;3.75;2.63;;;;;;;15.86;100.00;95328.22;1039784;28;20030;-77
2023/07/02 00:24:55;;;;;;;3.55;2.80;;;;;;;15.79;100.00;95310.16;1039366;28;20025;-76
2023/07/02 00:25:26;;;;;;;2.75;2.53;;;;;;;15.93;100.00;95333.09;1041906;28;20184;-75
2023/07/02 00:25:57;;;;;;;3.75;2.40;;;;;;;15.91;100.00;95335.25;1034963;28;20088;-76
2023/07/02 00:26:27;;;;;;;3.55;2.53;;;;;;;15.82;100.00;95321.19;1035004;28;20132;-77
2023/07/02 00:26:58;;;;;;;3.42;2.70;;;;;;;15.73;100.00;95302.66;1032673;28;20559;-76
2023/07/02 00:27:28;;;;;;;4.80;2.47;;;;;;;15.86;100.00;95327.44;1039423;28;20041;-76
2023/07/02 00:27:58;;;;;;;2.67;2.47;;;;;;;15.85;100.00;95320.59;1047507;28;20020;-77
2023/07/02 00:28:29;;;;;;;3.05;2.75;;;;;;;15.71;100.00;95310.88;1047158;28;20041;-76
2023/07/02 00:28:59;;;;;;;4.40;2.50;;;;;;;15.82;100.00;95324.63;1038913;28;20029;-76
2023/07/02 00:29:30;;;;;;;3.60;2.88;;;;;;;15.83;100.00;95317.44;1039425;28;20026;-77
2023/07/02 00:30:00;;;;;;;3.17;2.88;;;;;;;15.81;100.00;95320.41;1043563;28;20815;-77
2023/07/02 00:30:31;;;;;;;2.83;2.47;;;;;;;15.84;100.00;95325.09;1042140;28;20051;-77
2023/07/02 00:31:02;;;;;;;4.07;2.72;;;;;;;15.75;100.00;95313.69;1034610;28;20033;-76
2023/07/02 00:31:33;;;;;;;3.35;2.45;;;;;;;15.82;100.00;95321.19;1035334;28;20381;-77
2023/07/02 00:32:04;;;;;;;4.65;2.83;;;;;;;15.79;100.00;95312.00;1038258;28;20439;-77
2023/07/02 00:32:34;;;;;;;3.15;2.33;;;;;;;15.81;100.00;95319.63;1039967;28;20065;-76
2023/07/02 00:33:05;;;;;;;4.03;2.70;;;;;;;15.83;100.00;95320.09;1043825;28;20029;-76
2023/07/02 00:33:35;;;;;;;4.15;2.65;;;;;;;15.79;100.00;95323.38;1035325;28;20029;-77
2023/07/02 00:34:06;;;;;;;2.80;2.40;;;;;;;15.85;100.00;95331.94;1035695;28;20515;-77
2023/07/02 00:34:36;;;;;;;3.05;2.40;;;;;;;15.83;100.00;95322.75;1027364;28;20054;-76
2023/07/02 00:35:07;;;;;;;4.05;2.55;;;;;;;15.83;100.00;95330.69;1031291;28;20560;-77
2023/07/02 00:35:37;;;;;;;3.63;2.75;;;;;;;15.78;100.00;95324.44;1043566;28;20075;-76
2023/07/02 00:36:12;;;;;;;6.25;3.10;;;;;;;15.81;100.00;95322.28;1039680;28;20453;-77
2023/07/02 00:36:43;;;;;;;2.65;2.30;;;;;;;15.82;100.00;95329.91;1044631;28;20036;-77
2023/07/02 00:37:15;;;;;;;3.75;2.47;;;;;;;15.82;100.00;95326.47;1042586;28;20822;-77
2023/07/02 00:37:45;;;;;;;3.53;2.70;;;;;;;15.72;100.00;95307.16;1032188;28;20117;-76
2023/07/02 00:38:16;;;;;;;3.70;2.30;;;;;;;15.74;100.00;95318.22;1035322;28;20033;-76
2023/07/02 00:38:47;;;;;;;3.33;2.47;;;;;;;15.71;100.00;95316.19;1031079;28;20026;-76
2023/07/02 00:39:18;;;;;;;3.15;2.40;;;;;;;15.70;100.00;95311.19;1032059;28;20085;-77
2023/07/02 00:39:48;;;;;;;3.30;2.53;;;;;;;15.81;100.00;95331.00;1039664;28;20025;-76
2023/07/02 00:40:19;;;;;;;3.83;2.85;;;;;;;15.72;100.00;95307.16;1039799;28;20730;-77
2023/07/02 00:40:49;;;;;;;2.65;2.30;;;;;;;15.79;100.00;95327.88;1043976;28;20441;-77
2023/07/02 00:41:20;;;;;;;2.67;2.40;;;;;;;15.73;100.00;95311.38;1035003;28;20022;-77
2023/07/02 00:41:50;;;;;;;2.92;2.60;;;;;;;15.78;100.00;95321.03;1035470;28;20033;-77
2023/07/02 00:42:23;;;;;;;2.90;2.60;;;;;;;15.73;100.00;95316.66;1040346;28;20407;-77
2023/07/02 00:42:53;;;;;;;3.78;2.45;;;;;;;15.76;100.00;95313.41;1048720;28;20784;-77
2023/07/02 00:43:24;;;;;;;4.05;2.42;;;;;;;15.75;100.00;95322.41;1055938;28;20049;-77
2023/07/02 00:43:54;;;;;;;4.13;2.50;;;;;;;15.73;100.00;95321.94;1056450;27;20137;-77
2023/07/02 00:44:25;;;;;;;3.97;2.42;;;;;;;15.71;100.00;95321.47;1051798;28;20028;-77
2023/07/02 00:44:57;;;;;;;3.70;2.42;;;;;;;15.72;100.00;95323.00;1052328;28;20024;-77
2023/07/02 00:45:27;;;;;;;4.15;2.47;;;;;;;15.73;100.00;95329.88;1052200;28;20600;-77
2023/07/02 00:45:58;;;;;;;2.88;2.38;;;;;;;15.67;100.00;95320.53;1051661;28;20024;-75
2023/07/02 00:46:29;;;;;;;4.07;2.35;;;;;;;15.67;100.00;95325.03;1035369;28;20378;-77
2023/07/02 00:46:59;;;;;;;3.58;2.75;;;;;;;15.71;100.00;95332.03;1039441;28;20052;-76
2023/07/02 00:47:33;;;;;;;4.30;2.58;;;;;;;15.64;100.00;95325.59;1043058;28;20028;-76
2023/07/02 00:48:04;;;;;;;4.20;2.25;;;;;;;15.69;100.00;95331.59;1044293;28;20025;-76
2023/07/02 00:48:34;;;;;;;3.35;2.55;;;;;;;15.59;100.00;95325.72;1048185;28;20116;-77
2023/07/02 00:49:05;;;;;;;3.10;2.67;;;;;;;15.70;100.00;95333.13;1042088;28;20025;-77
2023/07/02 00:49:35;;;;;;;3.17;2.80;;;;;;;15.71;100.00;95334.69;1039827;28;20040;-77
2023/07/02 00:50:07;;;;;;;2.88;2.58;;;;;;;15.70;100.00;95340.28;1044291;28;20031;-77
2023/07/02 00:50:39;;;;;;;3.78;2.42;;;;;;;15.66;100.00;95326.06;1039913;28;20953;-76
2023/07/02 00:51:09;;;;;;;3.17;2.30;;;;;;;15.71;100.00;95336.56;1034436;28;20025;-76
2023/07/02 00:51:41;;;;;;;4.35;2.83;;;;;;;15.71;100.00;95326.75;1031229;28;20014;-77
2023/07/02 00:52:11;;;;;;;2.75;2.40;;;;;;;15.64;100.00;95313.16;1032348;28;20029;-76
2023/07/02 00:52:42;;;;;;;2.75;2.22;;;;;;;15.72;100.00;95333.59;1031469;28;20027;-77
2023/07/02 00:53:13;;;;;;;3.70;2.30;;;;;;;15.64;100.00;95315.81;1035894;28;20021;-76
2023/07/02 00:53:47;;;;;;;2.33;1.88;;;;;;;15.73;100.00;95334.41;1035788;28;20025;-77
2023/07/02 00:54:17;;;;;;;3.88;2.10;;;;;;;15.73;100.00;95334.41;1043642;28;20632;-77
2023/07/02 00:54:48;;;;;;;3.10;2.40;;;;;;;15.67;100.00;95325.81;1052891;28;20024;-77
2023/07/02 00:55:18;;;;;;;2.40;2.20;;;;;;;15.73;100.00;95334.41;1053980;28;20027;-77
2023/07/02 00:55:49;;;;;;;2.78;2.30;;;;;;;15.73;100.00;95334.41;1052612;28;20016;-77
2023/07/02 00:56:19;;;;;;;2.47;2.28;;;;;;;15.72;100.00;95333.59;1049445;28;20020;-77
2023/07/02 00:56:50;;;;;;;2.25;2.05;;;;;;;15.71;100.00;95331.28;1045213;28;20021;-76
2023/07/02 00:57:20;;;;;;;3.05;2.40;;;;;;;15.62;100.00;95323.25;1041046;28;20024;-76
2023/07/02 00:57:51;;;;;;;2.53;2.28;;;;;;;15.66;100.00;95337.47;1038976;28;20021;-76
2023/07/02 00:58:22;;;;;;;2.75;1.88;;;;;;;15.62;100.00;95328.53;1035569;28;20022;-77
2023/07/02 00:58:58;;;;;;;2.50;2.20;;;;;;;15.66;100.00;95329.53;1039748;28;20032;-76
2023/07/02 00:59:34;;;;;;;2.78;2.10;;;;;;;15.67;100.00;95330.31;1046634;28;20025;-76
2023/07/02 01:00:06;;;;;;;2.80;2.15;;;;;;;15.69;100.00;95339.53;1043380;28;20032;-76
2023/07/02 01:00:36;;;;;;;2.97;2.50;;;;;;;15.65;100.00;95338.53;1035284;28;20642;-77
2023/07/02 01:01:09;;;;;;;3.95;2.40;;;;;;;15.70;100.00;95341.06;1029746;28;20037;-77
2023/07/02 01:01:39;;;;;;;2.53;2.15;;;;;;;15.65;100.00;95327.16;1029194;28;20022;-77
2023/07/02 01:02:10;;;;;;;5.78;2.50;;;;;;;15.70;100.00;95333.13;1035728;28;20026;-77
2023/07/02 01:02:43;;;;;;;2.28;2.08;;;;;;;15.67;100.00;95325.03;1041148;28;20029;-76
2023/07/02 01:03:14;;;;;;;3.15;2.50;;;;;;;15.65;100.00;95333.22;1047609;28;20032;-77
2023/07/02 01:03:54;;;;;;;3.03;2.58;;;;;;;15.72;100.00;95336.25;1043941;28;20029;-77
2023/07/02 01:04:27;;;;;;;2.83;2.53;;;;;;;15.70;100.00;95346.38;1043528;28;20093;-77
2023/07/02 01:04:59;;;;;;;2.92;2.30;;;;;;;15.71;100.00;95347.91;1045446;28;20608;-77
2023/07/02 01:05:35;;;;;;;2.95;2.20;;;;;;;15.72;100.00;95344.19;1045629;28;20500;-77
2023/07/02 01:06:05;;;;;;;2.50;1.98;;;;;;;15.70;100.00;95343.72;1047156;28;20024;-77
2023/07/02 01:06:36;;;;;;;6.10;2.33;;;;;;;15.71;100.00;95342.63;1048427;28;20398;-77
2023/07/02 01:07:09;;;;;;;2.67;2.10;;;;;;;15.69;100.00;95344.81;1047374;28;20039;-76
2023/07/02 01:07:40;;;;;;;2.88;2.15;;;;;;;15.71;100.00;95347.91;1048152;28;20467;-77
2023/07/02 01:08:11;;;;;;;2.97;1.98;;;;;;;15.63;100.00;95330.13;1055658;28;20020;-77
2023/07/02 01:08:42;;;;;;;2.88;2.20;;;;;;;15.65;100.00;95337.75;1052182;28;20018;-77
2023/07/02 01:09:12;;;;;;;4.97;3.08;;;;;;;15.64;100.00;95334.31;1047659;28;20828;-77
2023/07/02 01:09:43;;;;;;;2.10;1.90;;;;;;;15.71;100.00;95347.13;1043178;28;20040;-77
2023/07/02 01:10:13;;;;;;;2.35;2.10;;;;;;;15.70;100.00;95346.38;1035309;28;20022;-76
2023/07/02 01:10:44;;;;;;;2.00;1.90;;;;;;;15.71;100.00;95342.63;1039661;28;20057;-77
2023/07/02 01:11:14;;;;;;;3.22;2.33;;;;;;;15.71;100.00;95341.84;1040440;28;20010;-76
2023/07/02 01:11:53;;;;;;;2.25;2.05;;;;;;;15.64;100.00;95334.31;1030787;28;20029;-77
2023/07/02 01:12:23;;;;;;;2.50;1.98;;;;;;;15.73;100.00;95344.97;1043244;28;20017;-76
2023/07/02 01:12:54;;;;;;;2.72;1.98;;;;;;;15.66;100.00;95337.47;1045862;28;20020;-77
2023/07/02 01:13:25;;;;;;;3.35;2.28;;;;;;;15.66;100.00;95340.13;1038760;28;20503;-77
2023/07/02 01:14:01;;;;;;;2.20;2.00;;;;;;;15.67;100.00;95336.38;1034877;28;20515;-77
2023/07/02 01:14:33;;;;;;;2.75;2.20;;;;;;;15.69;100.00;95339.53;1038826;28;20048;-76
2023/07/02 01:15:04;;;;;;;3.08;1.92;;;;;;;15.68;100.00;95348.53;1038865;28;20049;-76
2023/07/02 01:15:35;;;;;;;2.47;2.22;;;;;;;15.64;100.00;95342.25;1038606;28;20032;-77
2023/07/02 01:16:05;;;;;;;2.55;2.13;;;;;;;15.58;100.00;95327.59;1030644;28;20496;-76
2023/07/02 01:16:36;;;;;;;2.25;2.05;;;;;;;15.70;100.00;95346.38;1034563;28;20056;-77
2023/07/02 01:17:06;;;;;;;4.43;1.90;;;;;;;15.71;100.00;95344.50;1043040;28;20009;-77
2023/07/02 01:17:42;;;;;;;2.33;2.03;;;;;;;15.68;100.00;95342.47;1039076;28;20112;-76
2023/07/02 01:18:13;;;;;;;2.47;2.10;;;;;;;15.61;100.00;95334.16;1038799;28;20707;-76
2023/07/02 01:18:44;;;;;;;2.28;2.00;;;;;;;15.69;100.00;95354.59;1046669;28;20016;-76
2023/07/02 01:19:42;;;;;;;3.33;2.05;;;;;;;15.71;100.00;95353.22;1042889;28;20013;-76
2023/07/02 01:20:12;;;;;;;2.42;1.95;;;;;;;15.70;100.00;95349.00;1036888;28;20017;-76
2023/07/02 01:20:43;;;;;;;2.20;1.83;;;;;;;15.67;100.00;95341.69;1030689;28;20527;-76
2023/07/02 01:21:13;;;;;;;2.75;2.30;;;;;;;15.66;100.00;95345.41;1034041;28;20064;-77
2023/07/02 01:21:45;;;;;;;2.55;2.20;;;;;;;15.67;100.00;95346.19;1039027;28;20102;-76
2023/07/02 01:22:15;;;;;;;2.40;2.10;;;;;;;15.69;100.00;95350.09;1038591;28;20013;-76
2023/07/02 01:22:46;;;;;;;2.83;2.30;;;;;;;15.68;100.00;95348.53;1038473;28;20021;-77
2023/07/02 01:23:16;;;;;;;2.38;2.00;;;;;;;15.67;100.00;95341.69;1043146;28;20120;-77
2023/07/02 01:23:47;;;;;;;3.90;2.08;;;;;;;15.68;100.00;95347.75;1035530;28;20018;-77
2023/07/02 01:24:17;;;;;;;3.13;2.35;;;;;;;15.70;100.00;95346.38;1043639;28;20025;-77
2023/07/02 01:24:48;;;;;;;2.13;1.92;;;;;;;15.71;100.00;95341.84;1042921;28;20445;-76
2023/07/02 01:25:21;;;;;;;2.25;1.92;;;;;;;15.68;100.00;95343.22;1045241;28;20071;-76
2023/07/02 01:25:52;;;;;;;2.15;1.95;;;;;;;15.64;100.00;95336.97;1047571;28;20385;-77
2023/07/02 01:26:22;;;;;;;2.53;1.67;;;;;;;15.69;100.00;95339.53;1043129;28;20036;-76
2023/07/02 01:26:53;;;;;;;2.00;1.73;;;;;;;15.63;100.00;95334.63;1039814;28;20021;-77
2023/07/02 01:27:23;;;;;;;3.40;1.90;;;;;;;15.69;100.00;95334.22;1039355;28;20075;-75
2023/07/02 01:27:55;;;;;;;3.97;2.30;;;;;;;15.69;100.00;95344.00;1042876;28;20032;-75
2023/07/02 01:28:34;;;;;;;3.20;2.17;;;;;;;15.65;100.00;95327.94;1043517;28;20025;-77
2023/07/02 01:29:17;;;;;;;3.08;2.10;;;;;;;15.69;100.00;95334.22;1044835;28;20024;-76
2023/07/02 01:29:50;;;;;;;3.17;1.90;;;;;;;15.57;100.00;95312.81;1042994;28;20474;-77
2023/07/02 01:30:21;;;;;;;2.88;2.13;;;;;;;15.71;100.00;95337.34;1044468;28;20480;-77
2023/07/02 01:30:51;;;;;;;2.45;2.10;;;;;;;15.73;100.00;95335.19;1050211;28;20134;-76
2023/07/02 01:31:24;;;;;;;2.45;2.00;;;;;;;15.73;100.00;95337.03;1050789;28;20027;-78
2023/07/02 01:31:55;;;;;;;2.75;2.38;;;;;;;15.70;100.00;95333.13;1051683;28;20492;-76
2023/07/02 01:32:26;;;;;;;2.83;2.03;;;;;;;15.75;100.00;95335.63;1050519;28;20019;-76
2023/07/02 01:32:56;;;;;;;3.30;2.03;;;;;;;15.75;100.00;95346.22;1051765;28;20016;-76
2023/07/02 01:33:26;;;;;;;2.40;1.95;;;;;;;15.76;100.00;95342.50;1051782;28;20557;-77
2023/07/02 01:33:57;;;;;;;1.67;1.52;;;;;;;15.66;100.00;95318.97;1052018;28;20480;-77
2023/07/02 01:34:27;;;;;;;3.25;2.10;;;;;;;15.76;100.00;95337.22;1060040;27;20071;-77
2023/07/02 01:34:58;;;;;;;2.72;2.03;;;;;;;15.81;100.00;95338.16;1047483;28;20020;-77
2023/07/02 01:35:29;;;;;;;2.75;2.30;;;;;;;15.82;100.00;95339.72;1038967;28;20022;-76
2023/07/02 01:35:59;;;;;;;2.17;1.98;;;;;;;15.84;100.00;95340.19;1039515;28;20029;-76
2023/07/02 01:36:30;;;;;;;1.95;1.83;;;;;;;15.84;100.00;95335.69;1035576;28;20093;-77
2023/07/02 01:37:01;;;;;;;4.35;1.90;;;;;;;15.85;100.00;95337.22;1043145;28;20025;-77
2023/07/02 01:37:37;;;;;;;2.60;1.90;;;;;;;15.85;100.00;95339.09;1047798;28;20032;-76
2023/07/02 01:38:07;;;;;;;2.40;2.00;;;;;;;15.85;100.00;95339.09;1047440;28;20395;-76
2023/07/02 01:38:37;;;;;;;2.63;2.28;;;;;;;15.81;100.00;95327.56;1047655;28;20032;-76
2023/07/02 01:39:08;;;;;;;2.10;1.90;;;;;;;15.87;100.00;95334.28;1047563;28;20062;-76
2023/07/02 01:39:38;;;;;;;2.30;2.10;;;;;;;15.85;100.00;95341.75;1047596;28;20029;-77
2023/07/02 01:40:09;;;;;;;2.03;1.80;;;;;;;15.80;100.00;95329.44;1047734;28;20556;-77
2023/07/02 01:40:40;;;;;;;5.70;2.10;;;;;;;15.87;100.00;95335.06;1047573;28;20035;-76
2023/07/02 01:41:10;;;;;;;1.90;1.80;;;;;;;15.72;100.00;95311.66;1047020;28;20024;-76
2023/07/02 01:41:53;;;;;;;2.42;2.05;;;;;;;15.86;100.00;95340.66;1047449;28;20024;-77
2023/07/02 01:42:24;;;;;;;2.70;2.03;;;;;;;15.87;100.00;95339.59;1046075;28;20036;-76
2023/07/02 01:42:54;;;;;;;2.17;1.98;;;;;;;15.82;100.00;95326.47;1047094;28;20028;-76
2023/07/02 01:43:25;;;;;;;2.40;2.20;;;;;;;15.81;100.00;95322.28;1047268;28;20082;-77
2023/07/02 01:43:55;;;;;;;2.35;2.00;;;;;;;15.84;100.00;95329.63;1048127;28;20028;-77
2023/07/02 01:44:26;;;;;;;2.65;1.98;;;;;;;15.71;100.00;95310.88;1051563;28;20020;-77
2023/07/02 01:44:56;;;;;;;3.88;2.17;;;;;;;15.84;100.00;95324.31;1052124;28;20027;-77
2023/07/02 01:45:26;;;;;;;3.08;1.98;;;;;;;15.88;100.00;95325.25;1051451;28;20089;-76
2023/07/02 01:45:57;;;;;;;2.90;1.85;;;;;;;15.87;100.00;95334.28;1047461;28;20016;-76
2023/07/02 01:46:28;;;;;;;3.17;2.25;;;;;;;15.88;100.00;95330.56;1043171;28;20127;-76
2023/07/02 01:46:58;;;;;;;4.38;2.40;;;;;;;15.74;100.00;95304.22;1043869;28;20021;-77
2023/07/02 01:47:29;;;;;;;2.30;2.10;;;;;;;15.89;100.00;95335.53;1047490;28;20029;-77
2023/07/02 01:47:59;;;;;;;2.05;1.80;;;;;;;15.90;100.00;95331.03;1043252;28;20482;-76
2023/07/02 01:48:30;;;;;;;8.30;2.70;;;;;;;15.86;100.00;95327.44;1047434;28;20028;-76
2023/07/02 01:49:00;;;;;;;2.60;2.40;;;;;;;15.88;100.00;95336.63;1051530;28;20024;-76
2023/07/02 01:49:30;;;;;;;2.55;2.35;;;;;;;15.90;100.00;95326.53;1051366;28;20024;-76
2023/07/02 01:50:03;;;;;;;2.13;1.92;;;;;;;15.89;100.00;95335.53;1051591;28;20020;-77
2023/07/02 01:50:33;;;;;;;2.53;2.22;;;;;;;15.88;100.00;95338.50;1043239;28;20552;-77
2023/07/02 01:51:04;;;;;;;2.33;1.98;;;;;;;15.89;100.00;95329.47;1038517;28;20160;-76
2023/07/02 01:51:34;;;;;;;3.25;2.10;;;;;;;15.92;100.00;95326.22;1039429;28;20030;-77
2023/07/02 01:52:05;;;;;;;2.30;2.10;;;;;;;15.91;100.00;95330.72;1043134;28;20029;-76
2023/07/02 01:52:35;;;;;;;2.50;2.30;;;;;;;15.92;100.00;95339.44;1055483;28;20586;-76
2023/07/02 01:53:06;;;;;;;2.25;2.05;;;;;;;15.87;100.00;95329.00;1055641;28;20020;-77
2023/07/02 01:53:36;;;;;;;2.15;1.95;;;;;;;15.93;100.00;95333.09;1055686;28;20024;-75
2023/07/02 01:54:07;;;;;;;3.33;2.15;;;;;;;15.90;100.00;95331.81;1055103;28;20039;-76
2023/07/02 01:54:37;;;;;;;4.32;2.45;;;;;;;15.90;100.00;95333.69;1047572;28;20036;-77
2023/07/02 01:55:08;;;;;;;3.22;2.45;;;;;;;15.94;100.00;95339.94;1047221;28;20382;-76
2023/07/02 01:55:39;;;;;;;4.32;2.50;;;;;;;15.95;100.00;95339.59;1043155;28;20498;-76
2023/07/02 01:56:09;;;;;;;2.85;2.55;;;;;;;15.96;100.00;95332.44;1046523;28;20029;-77
2023/07/02 01:56:39;;;;;;;2.63;2.42;;;;;;;15.94;100.00;95338.06;1047400;28;20032;-77
2023/07/02 01:57:10;;;;;;;3.45;2.30;;;;;;;15.98;100.00;95338.22;1051518;28;20092;-76
2023/07/02 01:57:40;;;;;;;3.30;2.47;;;;;;;15.99;100.00;95343.19;1050102;28;20041;-77
2023/07/02 01:58:11;;;;;;;2.50;2.30;;;;;;;15.99;100.00;95345.84;1051931;28;20024;-77
2023/07/02 01:58:41;;;;;;;3.03;2.22;;;;;;;15.97;100.00;95345.38;1051807;28;20031;-76
2023/07/02 01:59:12;;;;;;;3.20;2.30;;;;;;;15.91;100.00;95336.00;1050958;28;20028;-77
2023/07/02 01:59:42;;;;;;;2.58;2.08;;;;;;;15.99;100.00;95350.34;1043743;28;20009;-76
2023/07/02 02:00:13;;;;;;;2.45;2.25;;;;;;;16.01;100.00;95356.91;1043291;28;20131;-77
2023/07/02 02:00:44;;;;;;;4.38;2.20;;;;;;;16.00;100.00;95354.59;1043352;28;20017;-77
2023/07/02 02:01:14;;;;;;;3.60;2.20;;;;;;;16.02;100.00;95362.97;1046502;28;20013;-76
2023/07/02 02:01:44;;;;;;;3.83;2.58;;;;;;;16.00;100.00;95370.47;1051633;28;20012;-77
2023/07/02 02:02:15;;;;;;;3.42;2.10;;;;;;;16.04;100.00;95368.75;1051957;28;20580;-77
2023/07/02 02:02:45;;;;;;;3.10;2.20;;;;;;;16.07;100.00;95367.38;1049399;28;20024;-77
2023/07/02 02:03:16;;;;;;;2.80;2.40;;;;;;;16.07;100.00;95360.22;1047913;28;20031;-77
2023/07/02 02:03:46;;;;;;;3.47;2.55;;;;;;;16.05;100.00;95372.97;1047628;28;20078;-77
2023/07/02 02:04:17;;;;;;;3.47;2.10;;;;;;;16.04;100.00;95371.41;1048264;28;20507;-76
2023/07/02 02:04:47;;;;;;;3.22;2.10;;;;;;;16.02;100.00;95370.91;1051437;28;20016;-77
2023/07/02 02:05:18;;;;;;;2.10;1.90;;;;;;;16.01;100.00;95367.50;1051699;28;20035;-77
2023/07/02 02:05:48;;;;;;;2.58;2.28;;;;;;;16.00;100.00;95370.47;1051900;28;20027;-77
2023/07/02 02:06:18;;;;;;;1.83;1.70;;;;;;;15.86;100.00;95352.03;1048393;28;20024;-76
2023/07/02 02:06:49;;;;;;;3.53;1.90;;;;;;;15.94;100.00;95374.31;1047698;28;20017;-76
2023/07/02 02:07:19;;;;;;;6.22;1.95;;;;;;;15.92;100.00;95379.13;1047484;28;20021;-76
2023/07/02 02:07:50;;;;;;;2.90;1.98;;;;;;;15.89;100.00;95372.56;1048862;28;20029;-77
2023/07/02 02:08:20;;;;;;;2.42;1.70;;;;;;;15.88;100.00;95370.25;1051143;28;20028;-77
2023/07/02 02:08:51;;;;;;;2.25;1.80;;;;;;;15.88;100.00;95375.53;1051390;28;20094;-77
2023/07/02 02:09:21;;;;;;;2.85;1.90;;;;;;;15.87;100.00;95366.06;1046941;28;20021;-77
2023/07/02 02:09:52;;;;;;;2.10;1.85;;;;;;;15.81;100.00;95375.19;1051304;28;20085;-77
2023/07/02 02:10:22;;;;;;;1.80;1.70;;;;;;;15.76;100.00;95368.97;1051307;28;20040;-76
2023/07/02 02:10:53;;;;;;;5.10;2.08;;;;;;;15.75;100.00;95370.03;1051354;28;20673;-77
2023/07/02 02:11:23;;;;;;;3.35;2.13;;;;;;;15.67;100.00;95370.78;1047845;28;20030;-77
2023/07/02 02:11:54;;;;;;;2.95;2.05;;;;;;;15.65;100.00;95370.25;1048683;28;20046;-77
2023/07/02 02:12:25;;;;;;;4.15;1.92;;;;;;;15.60;100.00;95367.75;1048884;28;20032;-77
2023/07/02 02:12:55;;;;;;;3.45;2.03;;;;;;;15.58;100.00;95364.63;1048087;28;20445;-77
2023/07/02 02:13:26;;;;;;;4.20;1.88;;;;;;;15.48;100.00;95354.31;1048299;28;20025;-78
2023/07/02 02:14:02;;;;;;;5.10;2.13;;;;;;;15.50;100.00;95362.72;1048479;28;20111;-77
2023/07/02 02:14:33;;;;;;;3.17;1.70;;;;;;;15.49;100.00;95361.13;1049628;28;20032;-78
2023/07/02 02:15:04;;;;;;;3.22;1.95;;;;;;;15.44;100.00;95359.41;1052324;28;20040;-77
2023/07/02 02:15:34;;;;;;;4.07;1.90;;;;;;;15.33;100.00;95342.25;1048693;28;20021;-77
2023/07/02 02:16:04;;;;;;;2.00;1.77;;;;;;;15.34;100.00;95354.38;1048110;28;20032;-78
2023/07/02 02:16:35;;;;;;;2.13;1.70;;;;;;;15.33;100.00;95358.88;1048340;28;20036;-79
2023/07/02 02:17:05;;;;;;;3.80;1.95;;;;;;;15.29;100.00;95357.13;1048368;28;20032;-78
2023/07/02 02:17:36;;;;;;;2.95;2.30;;;;;;;15.27;100.00;95362.72;1053126;28;20027;-78
2023/07/02 02:18:06;;;;;;;3.53;2.03;;;;;;;15.23;100.00;95374.22;1052596;28;20024;-78
2023/07/02 02:18:37;;;;;;;2.00;1.80;;;;;;;15.18;100.00;95363.75;1050836;28;20104;-77
2023/07/02 02:19:07;;;;;;;2.33;2.00;;;;;;;15.14;100.00;95368.88;1057683;28;20028;-78
2023/07/02 02:19:38;;;;;;;4.22;2.22;;;;;;;15.11;100.00;95364.16;1057454;28;20073;-78
2023/07/02 02:20:08;;;;;;;3.17;2.03;;;;;;;15.10;100.00;95362.63;1057538;28;20039;-78
2023/07/02 02:20:39;;;;;;;4.95;2.40;;;;;;;15.06;100.00;95366.94;1053166;28;20015;-76
2023/07/02 02:21:10;;;;;;;5.72;2.13;;;;;;;14.99;100.00;95370.00;1052190;28;20058;-77
2023/07/02 02:21:41;;;;;;;4.35;2.47;;;;;;;14.93;100.00;95357.22;1049094;28;20470;-78
2023/07/02 02:22:11;;;;;;;4.47;2.22;;;;;;;14.91;100.00;95362.78;1049073;28;20405;-78
2023/07/02 02:22:42;;;;;;;3.90;2.40;;;;;;;14.82;100.00;95370.66;1052144;28;20048;-77
2023/07/02 02:23:12;;;;;;;3.97;2.30;;;;;;;14.84;100.00;95370.34;1049008;28;20020;-78
2023/07/02 02:23:43;;;;;;;5.68;2.33;;;;;;;14.80;100.00;95367.50;1048897;28;20043;-77
2023/07/02 02:24:14;;;;;;;3.53;2.25;;;;;;;14.71;100.00;95369.28;1048729;28;20024;-77
2023/07/02 02:24:45;;;;;;;3.15;2.17;;;;;;;14.70;100.00;95370.38;1047992;28;20028;-77